sensor_id;sensor_type;location;lat;lon;timestamp;P1;durP1;ratioP1;P2;durP2;ratioP2
47713;SDS011;33475;46.614;13.888;2024-02-21T00:00:53;4.85;;;2.90;;
47713;SDS011;33475;46.614;13.888;2024-02-21T00:03:19;6.70;;;2.90;;
47713;SDS011;33475;46.614;13.888;2024-02-21T00:05:46;6.63;;;3.08;;
47713;SDS011;33475;46.614;13.888;2024-02-21T00:08:12;6.38;;;3.65;;
47713;SDS011;33475;46.614;13.888;2024-02-21T00:10:38;6.82;;;2.60;;
47713;SDS011;33475;46.614;13.888;2024-02-21T00:13:04;3.72;;;1.98;;
47713;SDS011;33475;46.614;13.888;2024-02-21T00:15:31;5.68;;;2.05;;
47713;SDS011;33475;46.614;13.888;2024-02-21T00:17:57;6.50;;;2.22;;
47713;SDS011;33475;46.614;13.888;2024-02-21T00:20:23;9.52;;;3.50;;
47713;SDS011;33475;46.614;13.888;2024-02-21T00:22:51;3.67;;;2.30;;
47713;SDS011;33475;46.614;13.888;2024-02-21T00:25:17;9.18;;;2.85;;
47713;SDS011;33475;46.614;13.888;2024-02-21T00:27:44;6.72;;;3.05;;
47713;SDS011;33475;46.614;13.888;2024-02-21T00:30:10;9.82;;;6.00;;
47713;SDS011;33475;46.614;13.888;2024-02-21T00:32:36;7.32;;;2.63;;
47713;SDS011;33475;46.614;13.888;2024-02-21T00:35:02;8.32;;;2.20;;
47713;SDS011;33475;46.614;13.888;2024-02-21T00:37:28;4.43;;;1.90;;
47713;SDS011;33475;46.614;13.888;2024-02-21T00:39:55;5.68;;;2.42;;
47713;SDS011;33475;46.614;13.888;2024-02-21T00:42:21;4.07;;;2.00;;
47713;SDS011;33475;46.614;13.888;2024-02-21T00:44:47;4.68;;;2.35;;
47713;SDS011;33475;46.614;13.888;2024-02-21T00:47:13;2.40;;;1.80;;
47713;SDS011;33475;46.614;13.888;2024-02-21T00:49:39;3.42;;;2.10;;
47713;SDS011;33475;46.614;13.888;2024-02-21T00:52:05;6.22;;;2.22;;
47713;SDS011;33475;46.614;13.888;2024-02-21T00:54:32;5.07;;;2.17;;
47713;SDS011;33475;46.614;13.888;2024-02-21T00:56:58;8.70;;;2.30;;
47713;SDS011;33475;46.614;13.888;2024-02-21T00:59:24;5.57;;;2.83;;
47713;SDS011;33475;46.614;13.888;2024-02-21T01:01:50;6.90;;;2.47;;
47713;SDS011;33475;46.614;13.888;2024-02-21T01:04:16;6.72;;;2.33;;
47713;SDS011;33475;46.614;13.888;2024-02-21T01:06:42;4.45;;;1.95;;
47713;SDS011;33475;46.614;13.888;2024-02-21T01:09:10;4.90;;;1.88;;
47713;SDS011;33475;46.614;13.888;2024-02-21T01:11:36;5.72;;;2.08;;
47713;SDS011;33475;46.614;13.888;2024-02-21T01:14:02;3.97;;;2.53;;
47713;SDS011;33475;46.614;13.888;2024-02-21T01:16:29;5.60;;;2.60;;
47713;SDS011;33475;46.614;13.888;2024-02-21T01:18:55;5.13;;;2.28;;
47713;SDS011;33475;46.614;13.888;2024-02-21T01:21:21;3.63;;;1.80;;
47713;SDS011;33475;46.614;13.888;2024-02-21T01:23:47;3.17;;;1.83;;
47713;SDS011;33475;46.614;13.888;2024-02-21T01:26:13;3.50;;;2.25;;
47713;SDS011;33475;46.614;13.888;2024-02-21T01:28:41;3.83;;;2.35;;
47713;SDS011;33475;46.614;13.888;2024-02-21T01:31:07;4.35;;;2.00;;
47713;SDS011;33475;46.614;13.888;2024-02-21T01:33:33;3.28;;;2.28;;
47713;SDS011;33475;46.614;13.888;2024-02-21T01:36:03;4.20;;;2.13;;
47713;SDS011;33475;46.614;13.888;2024-02-21T01:38:31;4.63;;;1.90;;
47713;SDS011;33475;46.614;13.888;2024-02-21T01:40:58;4.80;;;2.17;;
47713;SDS011;33475;46.614;13.888;2024-02-21T01:43:24;4.22;;;2.38;;
47713;SDS011;33475;46.614;13.888;2024-02-21T01:45:51;5.68;;;2.08;;
47713;SDS011;33475;46.614;13.888;2024-02-21T01:48:18;3.45;;;2.25;;
47713;SDS011;33475;46.614;13.888;2024-02-21T01:50:45;4.00;;;2.55;;
47713;SDS011;33475;46.614;13.888;2024-02-21T01:53:12;3.28;;;2.25;;
47713;SDS011;33475;46.614;13.888;2024-02-21T01:55:46;3.17;;;2.38;;
47713;SDS011;33475;46.614;13.888;2024-02-21T01:58:15;3.33;;;2.20;;
47713;SDS011;33475;46.614;13.888;2024-02-21T02:00:42;3.78;;;2.58;;
47713;SDS011;33475;46.614;13.888;2024-02-21T02:03:12;3.83;;;2.40;;
47713;SDS011;33475;46.614;13.888;2024-02-21T02:05:49;3.15;;;1.95;;
47713;SDS011;33475;46.614;13.888;2024-02-21T02:08:16;9.70;;;1.92;;
47713;SDS011;33475;46.614;13.888;2024-02-21T02:10:43;3.70;;;2.28;;
47713;SDS011;33475;46.614;13.888;2024-02-21T02:13:09;12.18;;;2.72;;
47713;SDS011;33475;46.614;13.888;2024-02-21T02:15:46;5.65;;;2.63;;
47713;SDS011;33475;46.614;13.888;2024-02-21T02:18:13;5.05;;;2.63;;
47713;SDS011;33475;46.614;13.888;2024-02-21T02:20:39;5.38;;;2.47;;
47713;SDS011;33475;46.614;13.888;2024-02-21T02:23:12;4.78;;;2.83;;
47713;SDS011;33475;46.614;13.888;2024-02-21T02:25:40;3.42;;;2.45;;
47713;SDS011;33475;46.614;13.888;2024-02-21T02:28:06;5.85;;;2.80;;
47713;SDS011;33475;46.614;13.888;2024-02-21T02:30:33;4.78;;;2.13;;
47713;SDS011;33475;46.614;13.888;2024-02-21T02:33:01;4.93;;;2.92;;
47713;SDS011;33475;46.614;13.888;2024-02-21T02:35:27;3.85;;;2.50;;
47713;SDS011;33475;46.614;13.888;2024-02-21T02:37:53;3.95;;;2.58;;
47713;SDS011;33475;46.614;13.888;2024-02-21T02:40:20;4.13;;;2.75;;
47713;SDS011;33475;46.614;13.888;2024-02-21T02:42:46;4.50;;;2.88;;
47713;SDS011;33475;46.614;13.888;2024-02-21T02:45:14;5.40;;;2.17;;
47713;SDS011;33475;46.614;13.888;2024-02-21T02:47:41;3.10;;;1.98;;
47713;SDS011;33475;46.614;13.888;2024-02-21T02:50:07;6.13;;;2.65;;
47713;SDS011;33475;46.614;13.888;2024-02-21T02:52:33;4.55;;;2.13;;
47713;SDS011;33475;46.614;13.888;2024-02-21T02:55:00;4.93;;;2.83;;
47713;SDS011;33475;46.614;13.888;2024-02-21T02:57:27;5.75;;;2.85;;
47713;SDS011;33475;46.614;13.888;2024-02-21T02:59:53;7.10;;;2.42;;
47713;SDS011;33475;46.614;13.888;2024-02-21T03:02:19;9.95;;;2.33;;
47713;SDS011;33475;46.614;13.888;2024-02-21T03:04:45;6.68;;;2.25;;
47713;SDS011;33475;46.614;13.888;2024-02-21T03:07:11;4.05;;;2.25;;
47713;SDS011;33475;46.614;13.888;2024-02-21T03:09:38;3.53;;;2.53;;
47713;SDS011;33475;46.614;13.888;2024-02-21T03:12:05;4.30;;;2.38;;
47713;SDS011;33475;46.614;13.888;2024-02-21T03:14:31;4.65;;;2.35;;
47713;SDS011;33475;46.614;13.888;2024-02-21T03:16:58;2.30;;;2.00;;
47713;SDS011;33475;46.614;13.888;2024-02-21T03:19:25;4.00;;;2.55;;
47713;SDS011;33475;46.614;13.888;2024-02-21T03:21:51;2.75;;;1.85;;
47713;SDS011;33475;46.614;13.888;2024-02-21T03:24:20;3.75;;;2.67;;
47713;SDS011;33475;46.614;13.888;2024-02-21T03:26:47;3.30;;;2.30;;
47713;SDS011;33475;46.614;13.888;2024-02-21T03:29:16;5.03;;;2.13;;
47713;SDS011;33475;46.614;13.888;2024-02-21T03:31:43;4.50;;;2.10;;
47713;SDS011;33475;46.614;13.888;2024-02-21T03:34:12;4.40;;;1.98;;
47713;SDS011;33475;46.614;13.888;2024-02-21T03:36:38;5.80;;;2.53;;
47713;SDS011;33475;46.614;13.888;2024-02-21T03:39:04;5.22;;;2.38;;
47713;SDS011;33475;46.614;13.888;2024-02-21T03:41:30;6.75;;;2.35;;
47713;SDS011;33475;46.614;13.888;2024-02-21T03:43:57;6.65;;;2.78;;
47713;SDS011;33475;46.614;13.888;2024-02-21T03:46:23;3.83;;;2.42;;
47713;SDS011;33475;46.614;13.888;2024-02-21T03:48:50;4.03;;;2.22;;
47713;SDS011;33475;46.614;13.888;2024-02-21T03:51:16;10.65;;;2.65;;
47713;SDS011;33475;46.614;13.888;2024-02-21T03:53:43;2.97;;;1.92;;
47713;SDS011;33475;46.614;13.888;2024-02-21T03:56:09;4.88;;;2.10;;
47713;SDS011;33475;46.614;13.888;2024-02-21T03:58:35;13.38;;;3.33;;
47713;SDS011;33475;46.614;13.888;2024-02-21T04:01:01;5.75;;;2.40;;
47713;SDS011;33475;46.614;13.888;2024-02-21T04:03:28;2.80;;;1.90;;
47713;SDS011;33475;46.614;13.888;2024-02-21T04:05:54;3.50;;;2.03;;
47713;SDS011;33475;46.614;13.888;2024-02-21T04:08:20;4.13;;;1.92;;
47713;SDS011;33475;46.614;13.888;2024-02-21T04:10:47;3.30;;;2.20;;
47713;SDS011;33475;46.614;13.888;2024-02-21T04:13:13;3.17;;;2.10;;
47713;SDS011;33475;46.614;13.888;2024-02-21T04:15:39;7.43;;;2.47;;
47713;SDS011;33475;46.614;13.888;2024-02-21T04:18:05;4.13;;;2.20;;
47713;SDS011;33475;46.614;13.888;2024-02-21T04:20:31;6.07;;;2.75;;
47713;SDS011;33475;46.614;13.888;2024-02-21T04:22:58;4.57;;;2.17;;
47713;SDS011;33475;46.614;13.888;2024-02-21T04:25:24;4.18;;;2.35;;
47713;SDS011;33475;46.614;13.888;2024-02-21T04:27:51;5.15;;;1.90;;
47713;SDS011;33475;46.614;13.888;2024-02-21T04:30:17;5.13;;;2.33;;
47713;SDS011;33475;46.614;13.888;2024-02-21T04:32:43;8.45;;;4.18;;
47713;SDS011;33475;46.614;13.888;2024-02-21T04:35:10;9.10;;;3.13;;
47713;SDS011;33475;46.614;13.888;2024-02-21T04:37:36;4.72;;;2.83;;
47713;SDS011;33475;46.614;13.888;2024-02-21T04:40:02;3.35;;;2.60;;
47713;SDS011;33475;46.614;13.888;2024-02-21T04:42:29;16.08;;;3.65;;
47713;SDS011;33475;46.614;13.888;2024-02-21T04:44:55;4.03;;;2.58;;
47713;SDS011;33475;46.614;13.888;2024-02-21T04:47:21;4.07;;;2.40;;
47713;SDS011;33475;46.614;13.888;2024-02-21T04:49:50;5.03;;;2.28;;
47713;SDS011;33475;46.614;13.888;2024-02-21T04:52:16;4.10;;;2.25;;
47713;SDS011;33475;46.614;13.888;2024-02-21T04:54:42;5.22;;;2.20;;
47713;SDS011;33475;46.614;13.888;2024-02-21T04:57:08;5.15;;;2.22;;
47713;SDS011;33475;46.614;13.888;2024-02-21T04:59:35;4.38;;;2.55;;
47713;SDS011;33475;46.614;13.888;2024-02-21T05:02:02;3.95;;;2.58;;
47713;SDS011;33475;46.614;13.888;2024-02-21T05:04:28;5.93;;;2.35;;
47713;SDS011;33475;46.614;13.888;2024-02-21T05:06:55;11.00;;;4.97;;
47713;SDS011;33475;46.614;13.888;2024-02-21T05:09:21;22.95;;;4.80;;
47713;SDS011;33475;46.614;13.888;2024-02-21T05:11:47;17.63;;;3.65;;
47713;SDS011;33475;46.614;13.888;2024-02-21T05:14:13;12.38;;;3.58;;
47713;SDS011;33475;46.614;13.888;2024-02-21T05:16:39;25.75;;;5.13;;
47713;SDS011;33475;46.614;13.888;2024-02-21T05:19:05;13.30;;;5.10;;
47713;SDS011;33475;46.614;13.888;2024-02-21T05:21:32;11.98;;;3.92;;
47713;SDS011;33475;46.614;13.888;2024-02-21T05:23:58;16.70;;;5.45;;
47713;SDS011;33475;46.614;13.888;2024-02-21T05:26:25;22.15;;;5.47;;
47713;SDS011;33475;46.614;13.888;2024-02-21T05:28:51;13.23;;;3.83;;
47713;SDS011;33475;46.614;13.888;2024-02-21T05:31:18;8.32;;;4.13;;
47713;SDS011;33475;46.614;13.888;2024-02-21T05:33:45;13.23;;;5.35;;
47713;SDS011;33475;46.614;13.888;2024-02-21T05:36:12;7.97;;;5.05;;
47713;SDS011;33475;46.614;13.888;2024-02-21T05:38:38;14.52;;;7.10;;
47713;SDS011;33475;46.614;13.888;2024-02-21T05:41:05;18.25;;;6.70;;
47713;SDS011;33475;46.614;13.888;2024-02-21T05:43:31;14.65;;;7.15;;
47713;SDS011;33475;46.614;13.888;2024-02-21T05:45:57;14.88;;;6.75;;
47713;SDS011;33475;46.614;13.888;2024-02-21T05:48:23;13.93;;;5.78;;
47713;SDS011;33475;46.614;13.888;2024-02-21T05:50:50;28.08;;;6.25;;
47713;SDS011;33475;46.614;13.888;2024-02-21T05:53:16;13.23;;;4.10;;
47713;SDS011;33475;46.614;13.888;2024-02-21T05:55:42;23.45;;;3.72;;
47713;SDS011;33475;46.614;13.888;2024-02-21T05:58:09;16.42;;;4.65;;
47713;SDS011;33475;46.614;13.888;2024-02-21T06:00:38;36.03;;;6.20;;
47713;SDS011;33475;46.614;13.888;2024-02-21T06:03:05;17.55;;;4.57;;
47713;SDS011;33475;46.614;13.888;2024-02-21T06:05:36;9.07;;;3.63;;
47713;SDS011;33475;46.614;13.888;2024-02-21T06:08:02;20.90;;;5.13;;
47713;SDS011;33475;46.614;13.888;2024-02-21T06:10:28;248.00;;;89.75;;
47713;SDS011;33475;46.614;13.888;2024-02-21T06:12:55;186.20;;;61.50;;
47713;SDS011;33475;46.614;13.888;2024-02-21T06:15:21;138.57;;;40.28;;
47713;SDS011;33475;46.614;13.888;2024-02-21T06:17:47;99.13;;;29.25;;
47713;SDS011;33475;46.614;13.888;2024-02-21T06:20:15;74.82;;;24.00;;
47713;SDS011;33475;46.614;13.888;2024-02-21T06:22:42;59.35;;;22.42;;
47713;SDS011;33475;46.614;13.888;2024-02-21T06:25:08;48.15;;;19.02;;
47713;SDS011;33475;46.614;13.888;2024-02-21T06:27:34;84.97;;;30.30;;
47713;SDS011;33475;46.614;13.888;2024-02-21T06:30:00;139.60;;;48.17;;
47713;SDS011;33475;46.614;13.888;2024-02-21T06:32:28;117.95;;;36.63;;
47713;SDS011;33475;46.614;13.888;2024-02-21T06:34:54;30.23;;;13.05;;
47713;SDS011;33475;46.614;13.888;2024-02-21T06:37:20;30.73;;;13.23;;
47713;SDS011;33475;46.614;13.888;2024-02-21T06:39:46;49.38;;;17.90;;
47713;SDS011;33475;46.614;13.888;2024-02-21T06:42:12;48.30;;;15.95;;
47713;SDS011;33475;46.614;13.888;2024-02-21T06:44:39;24.70;;;8.45;;
47713;SDS011;33475;46.614;13.888;2024-02-21T06:47:05;20.42;;;8.25;;
47713;SDS011;33475;46.614;13.888;2024-02-21T06:49:33;23.10;;;5.50;;
47713;SDS011;33475;46.614;13.888;2024-02-21T06:52:00;9.57;;;4.18;;
47713;SDS011;33475;46.614;13.888;2024-02-21T06:54:26;16.65;;;5.93;;
47713;SDS011;33475;46.614;13.888;2024-02-21T06:56:52;13.07;;;5.75;;
47713;SDS011;33475;46.614;13.888;2024-02-21T06:59:18;13.57;;;5.63;;
47713;SDS011;33475;46.614;13.888;2024-02-21T07:01:45;14.52;;;5.65;;
47713;SDS011;33475;46.614;13.888;2024-02-21T07:04:12;17.73;;;6.43;;
47713;SDS011;33475;46.614;13.888;2024-02-21T07:06:38;16.30;;;7.30;;
47713;SDS011;33475;46.614;13.888;2024-02-21T07:09:04;11.70;;;6.35;;
47713;SDS011;33475;46.614;13.888;2024-02-21T07:11:30;23.98;;;7.50;;
47713;SDS011;33475;46.614;13.888;2024-02-21T07:13:57;26.50;;;10.18;;
47713;SDS011;33475;46.614;13.888;2024-02-21T07:16:23;15.63;;;7.53;;
47713;SDS011;33475;46.614;13.888;2024-02-21T07:18:49;17.35;;;6.35;;
47713;SDS011;33475;46.614;13.888;2024-02-21T07:21:15;20.58;;;5.28;;
47713;SDS011;33475;46.614;13.888;2024-02-21T07:23:41;14.20;;;6.05;;
47713;SDS011;33475;46.614;13.888;2024-02-21T07:26:08;18.52;;;5.43;;
47713;SDS011;33475;46.614;13.888;2024-02-21T07:28:34;15.75;;;5.63;;
47713;SDS011;33475;46.614;13.888;2024-02-21T07:31:00;17.33;;;5.57;;
47713;SDS011;33475;46.614;13.888;2024-02-21T07:33:26;15.80;;;6.63;;
47713;SDS011;33475;46.614;13.888;2024-02-21T07:35:53;17.42;;;7.85;;
47713;SDS011;33475;46.614;13.888;2024-02-21T07:38:19;12.52;;;7.03;;
47713;SDS011;33475;46.614;13.888;2024-02-21T07:40:45;17.58;;;6.30;;
47713;SDS011;33475;46.614;13.888;2024-02-21T07:43:11;11.05;;;6.00;;
47713;SDS011;33475;46.614;13.888;2024-02-21T07:45:37;13.50;;;6.20;;
47713;SDS011;33475;46.614;13.888;2024-02-21T07:48:05;12.38;;;6.45;;
47713;SDS011;33475;46.614;13.888;2024-02-21T07:50:31;17.40;;;4.35;;
47713;SDS011;33475;46.614;13.888;2024-02-21T07:52:57;14.73;;;4.60;;
47713;SDS011;33475;46.614;13.888;2024-02-21T07:55:23;12.35;;;6.15;;
47713;SDS011;33475;46.614;13.888;2024-02-21T07:57:49;7.70;;;4.68;;
47713;SDS011;33475;46.614;13.888;2024-02-21T08:00:16;15.27;;;4.00;;
47713;SDS011;33475;46.614;13.888;2024-02-21T08:02:47;8.20;;;4.30;;
47713;SDS011;33475;46.614;13.888;2024-02-21T08:05:14;11.82;;;3.13;;
47713;SDS011;33475;46.614;13.888;2024-02-21T08:07:40;8.35;;;3.20;;
47713;SDS011;33475;46.614;13.888;2024-02-21T08:10:07;8.60;;;3.15;;
47713;SDS011;33475;46.614;13.888;2024-02-21T08:12:33;8.98;;;2.75;;
47713;SDS011;33475;46.614;13.888;2024-02-21T08:15:00;10.32;;;2.33;;
47713;SDS011;33475;46.614;13.888;2024-02-21T08:17:28;5.50;;;2.08;;
47713;SDS011;33475;46.614;13.888;2024-02-21T08:19:54;8.20;;;1.77;;
47713;SDS011;33475;46.614;13.888;2024-02-21T08:22:20;7.30;;;2.35;;
47713;SDS011;33475;46.614;13.888;2024-02-21T08:24:47;4.80;;;2.03;;
47713;SDS011;33475;46.614;13.888;2024-02-21T08:27:13;2.00;;;1.10;;
47713;SDS011;33475;46.614;13.888;2024-02-21T08:29:39;4.97;;;1.55;;
47713;SDS011;33475;46.614;13.888;2024-02-21T08:32:05;2.17;;;1.30;;
47713;SDS011;33475;46.614;13.888;2024-02-21T08:34:31;6.10;;;1.92;;
47713;SDS011;33475;46.614;13.888;2024-02-21T08:36:59;4.35;;;1.88;;
47713;SDS011;33475;46.614;13.888;2024-02-21T08:39:26;11.20;;;1.85;;
47713;SDS011;33475;46.614;13.888;2024-02-21T08:41:54;6.47;;;1.45;;
47713;SDS011;33475;46.614;13.888;2024-02-21T08:44:21;2.50;;;1.08;;
47713;SDS011;33475;46.614;13.888;2024-02-21T08:46:48;7.75;;;1.15;;
47713;SDS011;33475;46.614;13.888;2024-02-21T08:49:14;3.10;;;1.30;;
47713;SDS011;33475;46.614;13.888;2024-02-21T08:51:41;2.50;;;1.08;;
47713;SDS011;33475;46.614;13.888;2024-02-21T08:54:08;4.68;;;1.23;;
47713;SDS011;33475;46.614;13.888;2024-02-21T08:56:34;5.07;;;1.45;;
47713;SDS011;33475;46.614;13.888;2024-02-21T08:59:00;8.57;;;2.08;;
47713;SDS011;33475;46.614;13.888;2024-02-21T09:01:27;2.60;;;1.40;;
47713;SDS011;33475;46.614;13.888;2024-02-21T09:03:54;10.32;;;3.20;;
47713;SDS011;33475;46.614;13.888;2024-02-21T09:06:22;1.80;;;1.23;;
47713;SDS011;33475;46.614;13.888;2024-02-21T09:08:48;1.38;;;1.00;;
47713;SDS011;33475;46.614;13.888;2024-02-21T09:11:14;4.15;;;1.02;;
47713;SDS011;33475;46.614;13.888;2024-02-21T09:13:41;3.58;;;0.80;;
47713;SDS011;33475;46.614;13.888;2024-02-21T09:16:07;2.92;;;1.52;;
47713;SDS011;33475;46.614;13.888;2024-02-21T09:18:34;3.22;;;1.20;;
47713;SDS011;33475;46.614;13.888;2024-02-21T09:21:00;1.83;;;0.70;;
47713;SDS011;33475;46.614;13.888;2024-02-21T09:23:27;4.65;;;1.58;;
47713;SDS011;33475;46.614;13.888;2024-02-21T09:25:53;3.40;;;0.77;;
47713;SDS011;33475;46.614;13.888;2024-02-21T09:28:20;8.90;;;1.38;;
47713;SDS011;33475;46.614;13.888;2024-02-21T09:30:47;2.22;;;1.00;;
47713;SDS011;33475;46.614;13.888;2024-02-21T09:33:14;4.00;;;1.10;;
47713;SDS011;33475;46.614;13.888;2024-02-21T09:35:40;2.58;;;0.77;;
47713;SDS011;33475;46.614;13.888;2024-02-21T09:38:06;1.52;;;0.90;;
47713;SDS011;33475;46.614;13.888;2024-02-21T09:40:32;5.28;;;1.00;;
47713;SDS011;33475;46.614;13.888;2024-02-21T09:43:02;0.80;;;0.80;;
47713;SDS011;33475;46.614;13.888;2024-02-21T09:45:34;1.00;;;0.90;;
47713;SDS011;33475;46.614;13.888;2024-02-21T09:48:23;3.80;;;0.93;;
47713;SDS011;33475;46.614;13.888;2024-02-21T09:50:52;5.32;;;1.00;;
47713;SDS011;33475;46.614;13.888;2024-02-21T09:53:19;3.47;;;0.98;;
47713;SDS011;33475;46.614;13.888;2024-02-21T09:55:46;1.27;;;1.05;;
47713;SDS011;33475;46.614;13.888;2024-02-21T09:58:12;1.25;;;0.70;;
47713;SDS011;33475;46.614;13.888;2024-02-21T10:00:38;4.25;;;1.00;;
47713;SDS011;33475;46.614;13.888;2024-02-21T10:03:04;2.25;;;0.80;;
47713;SDS011;33475;46.614;13.888;2024-02-21T10:05:33;2.80;;;1.20;;
47713;SDS011;33475;46.614;13.888;2024-02-21T10:08:00;4.70;;;1.08;;
47713;SDS011;33475;46.614;13.888;2024-02-21T10:10:27;4.07;;;0.90;;
47713;SDS011;33475;46.614;13.888;2024-02-21T10:12:54;2.42;;;1.20;;
47713;SDS011;33475;46.614;13.888;2024-02-21T10:15:21;1.98;;;1.10;;
47713;SDS011;33475;46.614;13.888;2024-02-21T10:17:49;8.40;;;1.40;;
47713;SDS011;33475;46.614;13.888;2024-02-21T10:20:15;4.97;;;0.88;;
47713;SDS011;33475;46.614;13.888;2024-02-21T10:22:41;4.90;;;0.93;;
47713;SDS011;33475;46.614;13.888;2024-02-21T10:25:11;6.00;;;0.90;;
47713;SDS011;33475;46.614;13.888;2024-02-21T10:27:38;1.25;;;0.57;;
47713;SDS011;33475;46.614;13.888;2024-02-21T10:30:05;4.03;;;0.80;;
47713;SDS011;33475;46.614;13.888;2024-02-21T10:32:31;1.35;;;0.73;;
47713;SDS011;33475;46.614;13.888;2024-02-21T10:35:04;4.40;;;0.60;;
47713;SDS011;33475;46.614;13.888;2024-02-21T10:37:30;3.28;;;0.80;;
47713;SDS011;33475;46.614;13.888;2024-02-21T10:39:57;0.80;;;0.50;;
47713;SDS011;33475;46.614;13.888;2024-02-21T10:42:25;5.93;;;0.75;;
47713;SDS011;33475;46.614;13.888;2024-02-21T10:44:55;2.50;;;1.27;;
47713;SDS011;33475;46.614;13.888;2024-02-21T10:47:29;1.58;;;0.50;;
47713;SDS011;33475;46.614;13.888;2024-02-21T10:50:00;0.45;;;0.40;;
47713;SDS011;33475;46.614;13.888;2024-02-21T10:54:59;0.70;;;0.70;;
47713;SDS011;33475;46.614;13.888;2024-02-21T10:57:29;1.13;;;0.75;;
47713;SDS011;33475;46.614;13.888;2024-02-21T10:59:55;8.02;;;0.52;;
47713;SDS011;33475;46.614;13.888;2024-02-21T11:02:21;0.70;;;0.40;;
47713;SDS011;33475;46.614;13.888;2024-02-21T11:04:48;2.60;;;0.40;;
47713;SDS011;33475;46.614;13.888;2024-02-21T11:07:17;0.50;;;0.20;;
47713;SDS011;33475;46.614;13.888;2024-02-21T11:09:50;0.60;;;0.20;;
47713;SDS011;33475;46.614;13.888;2024-02-21T11:12:20;0.65;;;0.30;;
47713;SDS011;33475;46.614;13.888;2024-02-21T11:14:47;0.40;;;0.20;;
47713;SDS011;33475;46.614;13.888;2024-02-21T11:17:17;0.90;;;0.40;;
47713;SDS011;33475;46.614;13.888;2024-02-21T11:19:43;5.45;;;0.32;;
47713;SDS011;33475;46.614;13.888;2024-02-21T11:22:19;2.38;;;0.30;;
47713;SDS011;33475;46.614;13.888;2024-02-21T11:24:49;0.75;;;0.50;;
47713;SDS011;33475;46.614;13.888;2024-02-21T11:27:16;0.40;;;0.20;;
47713;SDS011;33475;46.614;13.888;2024-02-21T11:29:53;0.65;;;0.30;;
47713;SDS011;33475;46.614;13.888;2024-02-21T11:32:20;0.40;;;0.40;;
47713;SDS011;33475;46.614;13.888;2024-02-21T11:34:56;1.35;;;0.98;;
47713;SDS011;33475;46.614;13.888;2024-02-21T11:37:33;3.58;;;0.57;;
47713;SDS011;33475;46.614;13.888;2024-02-21T11:40:02;0.98;;;0.35;;
47713;SDS011;33475;46.614;13.888;2024-02-21T11:42:29;4.88;;;0.60;;
47713;SDS011;33475;46.614;13.888;2024-02-21T11:45:01;2.67;;;0.70;;
47713;SDS011;33475;46.614;13.888;2024-02-21T11:47:28;1.00;;;0.85;;
47713;SDS011;33475;46.614;13.888;2024-02-21T11:49:54;2.40;;;2.20;;
47713;SDS011;33475;46.614;13.888;2024-02-21T11:52:24;1.70;;;1.05;;
47713;SDS011;33475;46.614;13.888;2024-02-21T11:54:51;1.05;;;0.28;;
47713;SDS011;33475;46.614;13.888;2024-02-21T11:57:18;2.13;;;1.80;;
47713;SDS011;33475;46.614;13.888;2024-02-21T11:59:45;4.40;;;0.70;;
47713;SDS011;33475;46.614;13.888;2024-02-21T12:02:12;3.30;;;0.43;;
47713;SDS011;33475;46.614;13.888;2024-02-21T12:04:38;1.55;;;0.40;;
47713;SDS011;33475;46.614;13.888;2024-02-21T12:07:05;1.10;;;0.65;;
47713;SDS011;33475;46.614;13.888;2024-02-21T12:09:31;4.88;;;4.47;;
47713;SDS011;33475;46.614;13.888;2024-02-21T12:12:02;4.70;;;0.88;;
47713;SDS011;33475;46.614;13.888;2024-02-21T12:14:29;4.72;;;1.42;;
47713;SDS011;33475;46.614;13.888;2024-02-21T12:16:55;13.43;;;6.35;;
47713;SDS011;33475;46.614;13.888;2024-02-21T12:19:22;3.22;;;0.70;;
47713;SDS011;33475;46.614;13.888;2024-02-21T12:21:48;1.58;;;0.70;;
47713;SDS011;33475;46.614;13.888;2024-02-21T12:24:23;0.73;;;0.60;;
47713;SDS011;33475;46.614;13.888;2024-02-21T12:26:50;3.67;;;1.23;;
47713;SDS011;33475;46.614;13.888;2024-02-21T12:29:17;1.83;;;0.55;;
47713;SDS011;33475;46.614;13.888;2024-02-21T12:31:43;2.38;;;0.77;;
47713;SDS011;33475;46.614;13.888;2024-02-21T12:34:10;1.52;;;0.50;;
47713;SDS011;33475;46.614;13.888;2024-02-21T12:36:40;3.58;;;0.70;;
47713;SDS011;33475;46.614;13.888;2024-02-21T12:39:10;5.35;;;0.80;;
47713;SDS011;33475;46.614;13.888;2024-02-21T12:41:37;1.50;;;1.30;;
47713;SDS011;33475;46.614;13.888;2024-02-21T12:44:07;0.65;;;0.47;;
47713;SDS011;33475;46.614;13.888;2024-02-21T12:46:33;1.80;;;0.55;;
47713;SDS011;33475;46.614;13.888;2024-02-21T12:49:00;3.22;;;0.50;;
47713;SDS011;33475;46.614;13.888;2024-02-21T12:51:26;9.55;;;1.50;;
47713;SDS011;33475;46.614;13.888;2024-02-21T12:53:52;3.58;;;1.33;;
47713;SDS011;33475;46.614;13.888;2024-02-21T12:56:18;2.95;;;1.10;;
47713;SDS011;33475;46.614;13.888;2024-02-21T12:58:45;0.85;;;0.43;;
47713;SDS011;33475;46.614;13.888;2024-02-21T13:01:11;1.65;;;1.20;;
47713;SDS011;33475;46.614;13.888;2024-02-21T13:03:37;0.98;;;0.55;;
47713;SDS011;33475;46.614;13.888;2024-02-21T13:06:03;0.50;;;0.50;;
47713;SDS011;33475;46.614;13.888;2024-02-21T13:08:30;0.77;;;0.40;;
47713;SDS011;33475;46.614;13.888;2024-02-21T13:10:56;2.30;;;0.63;;
47713;SDS011;33475;46.614;13.888;2024-02-21T13:13:22;0.50;;;0.38;;
47713;SDS011;33475;46.614;13.888;2024-02-21T13:15:48;1.48;;;0.40;;
47713;SDS011;33475;46.614;13.888;2024-02-21T13:18:14;4.78;;;0.40;;
47713;SDS011;33475;46.614;13.888;2024-02-21T13:20:41;2.22;;;0.68;;
47713;SDS011;33475;46.614;13.888;2024-02-21T13:23:07;0.43;;;0.40;;
47713;SDS011;33475;46.614;13.888;2024-02-21T13:25:33;1.15;;;0.70;;
47713;SDS011;33475;46.614;13.888;2024-02-21T13:27:59;1.65;;;0.65;;
47713;SDS011;33475;46.614;13.888;2024-02-21T13:30:25;3.08;;;0.60;;
47713;SDS011;33475;46.614;13.888;2024-02-21T13:32:52;9.88;;;1.05;;
47713;SDS011;33475;46.614;13.888;2024-02-21T13:35:19;1.15;;;0.50;;
47713;SDS011;33475;46.614;13.888;2024-02-21T13:37:46;2.75;;;0.70;;
47713;SDS011;33475;46.614;13.888;2024-02-21T13:40:12;0.65;;;0.60;;
47713;SDS011;33475;46.614;13.888;2024-02-21T13:42:39;2.00;;;0.65;;
47713;SDS011;33475;46.614;13.888;2024-02-21T13:45:06;4.93;;;0.90;;
47713;SDS011;33475;46.614;13.888;2024-02-21T13:47:33;1.30;;;0.40;;
47713;SDS011;33475;46.614;13.888;2024-02-21T13:50:01;2.42;;;0.50;;
47713;SDS011;33475;46.614;13.888;2024-02-21T13:52:30;0.38;;;0.32;;
47713;SDS011;33475;46.614;13.888;2024-02-21T13:54:56;0.68;;;0.50;;
47713;SDS011;33475;46.614;13.888;2024-02-21T13:57:23;1.10;;;0.60;;
47713;SDS011;33475;46.614;13.888;2024-02-21T13:59:50;2.67;;;0.50;;
47713;SDS011;33475;46.614;13.888;2024-02-21T14:02:16;0.80;;;0.60;;
47713;SDS011;33475;46.614;13.888;2024-02-21T14:04:42;1.02;;;0.57;;
47713;SDS011;33475;46.614;13.888;2024-02-21T14:07:09;1.45;;;0.60;;
47713;SDS011;33475;46.614;13.888;2024-02-21T14:09:35;1.50;;;0.75;;
47713;SDS011;33475;46.614;13.888;2024-02-21T14:12:01;1.10;;;0.60;;
47713;SDS011;33475;46.614;13.888;2024-02-21T14:14:28;0.95;;;0.70;;
47713;SDS011;33475;46.614;13.888;2024-02-21T14:16:54;1.30;;;1.10;;
47713;SDS011;33475;46.614;13.888;2024-02-21T14:19:21;3.70;;;3.03;;
47713;SDS011;33475;46.614;13.888;2024-02-21T14:21:47;5.10;;;0.88;;
47713;SDS011;33475;46.614;13.888;2024-02-21T14:24:13;6.63;;;0.70;;
47713;SDS011;33475;46.614;13.888;2024-02-21T14:26:39;4.45;;;1.17;;
47713;SDS011;33475;46.614;13.888;2024-02-21T14:29:06;12.52;;;1.40;;
47713;SDS011;33475;46.614;13.888;2024-02-21T14:31:33;2.60;;;0.70;;